Etusivu
METAR-TAF:

METAR-TAF

Lentoasemat :

Bolton Field

Columbus, Ohio, Yhdysvallat

Leveyspiiri: 39-54-03N, Pituuspiiri: 083-08-14W, korkeus merenpinnasta: 276 m

Tämänhetkinen sää

Tämä raportti tehtiin 1 tunti ja 1 minuuttia sitten, kello 23.45 UTC
Tuuli 13 kn lännestä/lounaasta puuskistuen 19 kn:hen
Lämpötila 4°C
Kosteus 52%
Ilmanpaine 1007 hPa
Näkyvyys: 16.1 km
selkeää

METAR: KTZR 212345Z 25013G19KT 10SM CLR 04/M05 A2975

Aika: 19:46 (00:46 UTC)


TAF: puuttuu

Säähavainnot ja -ennusteet yli 4000 lentoasemalta (METAR- ja TAF-raportit).

Käytössä olevat sääasemat on merkitty karttaan keltaisilla ja punaisilla pisteillä.

Aseta hiiri pisteen päälle nähdäksesi sääaseman nimen.

Klikkaa sitten nähdäksesi säähavainnot ja -ennusteet.

Kartan vaihtaminen: klikkaa mustalla rastilla varustettuja vihreitä pisteitä, niin voit zoomata sisään; viivalla varustettua vihreää pistettä, niin voit zoomata ulos tai vihreitä nuolia, niin pääset viereisille kartoille.


METAR-TAF: